sensor_id;sensor_type;location;lat;lon;timestamp;pressure;altitude;pressure_sealevel;temperature;humidity
19114;BME280;9689;51.052;13.772;2023-08-17T00:03:33;100564.41;;;22.15;78.31
19114;BME280;9689;51.052;13.772;2023-08-17T00:08:38;100546.31;;;21.93;78.95
19114;BME280;9689;51.052;13.772;2023-08-17T00:13:38;100554.50;;;21.76;79.86
19114;BME280;9689;51.052;13.772;2023-08-17T00:18:39;100550.03;;;21.76;80.05
19114;BME280;9689;51.052;13.772;2023-08-17T00:23:42;100528.75;;;21.63;81.15
19114;BME280;9689;51.052;13.772;2023-08-17T00:28:42;100533.09;;;21.50;81.88
19114;BME280;9689;51.052;13.772;2023-08-17T00:33:43;100536.94;;;21.44;82.03
19114;BME280;9689;51.052;13.772;2023-08-17T00:38:45;100512.72;;;21.36;82.45
19114;BME280;9689;51.052;13.772;2023-08-17T00:43:46;100502.31;;;21.33;82.80
19114;BME280;9689;51.052;13.772;2023-08-17T00:48:47;100501.72;;;21.42;82.11
19114;BME280;9689;51.052;13.772;2023-08-17T00:53:50;100498.22;;;21.42;82.12
19114;BME280;9689;51.052;13.772;2023-08-17T00:58:51;100506.00;;;21.31;83.01
19114;BME280;9689;51.052;13.772;2023-08-17T01:03:52;100507.66;;;21.17;83.41
19114;BME280;9689;51.052;13.772;2023-08-17T01:08:54;100502.81;;;21.10;84.28
19114;BME280;9689;51.052;13.772;2023-08-17T01:13:58;100507.66;;;21.03;84.53
19114;BME280;9689;51.052;13.772;2023-08-17T01:19:00;100526.16;;;20.89;85.24
19114;BME280;9689;51.052;13.772;2023-08-17T01:24:05;100536.94;;;20.86;86.01
19114;BME280;9689;51.052;13.772;2023-08-17T01:29:06;100531.94;;;20.96;85.98
19114;BME280;9689;51.052;13.772;2023-08-17T01:34:10;100528.38;;;21.11;85.01
19114;BME280;9689;51.052;13.772;2023-08-17T01:39:21;100537.59;;;20.89;85.74
19114;BME280;9689;51.052;13.772;2023-08-17T01:44:24;100536.03;;;20.71;86.93
19114;BME280;9689;51.052;13.772;2023-08-17T01:49:27;100548.38;;;20.56;88.23
19114;BME280;9689;51.052;13.772;2023-08-17T01:54:29;100550.75;;;20.61;87.93
19114;BME280;9689;51.052;13.772;2023-08-17T01:59:30;100549.75;;;20.48;88.71
19114;BME280;9689;51.052;13.772;2023-08-17T02:04:30;100552.16;;;20.52;88.88
19114;BME280;9689;51.052;13.772;2023-08-17T02:09:33;100549.91;;;20.60;88.69
19114;BME280;9689;51.052;13.772;2023-08-17T02:14:34;100542.22;;;20.56;87.99
19114;BME280;9689;51.052;13.772;2023-08-17T02:19:35;100540.84;;;20.65;86.31
19114;BME280;9689;51.052;13.772;2023-08-17T02:24:37;100550.22;;;20.70;86.07
19114;BME280;9689;51.052;13.772;2023-08-17T02:29:39;100552.34;;;20.79;84.61
19114;BME280;9689;51.052;13.772;2023-08-17T02:34:40;100546.03;;;20.66;83.45
19114;BME280;9689;51.052;13.772;2023-08-17T02:39:42;100543.47;;;20.65;82.79
19114;BME280;9689;51.052;13.772;2023-08-17T02:44:43;100550.97;;;20.72;81.39
19114;BME280;9689;51.052;13.772;2023-08-17T02:49:43;100556.91;;;20.62;81.17
19114;BME280;9689;51.052;13.772;2023-08-17T02:54:46;100549.91;;;20.60;80.92
19114;BME280;9689;51.052;13.772;2023-08-17T02:59:47;100547.47;;;20.72;80.09
19114;BME280;9689;51.052;13.772;2023-08-17T03:04:48;100546.69;;;20.85;79.51
19114;BME280;9689;51.052;13.772;2023-08-17T03:09:50;100543.44;;;20.80;80.63
19114;BME280;9689;51.052;13.772;2023-08-17T03:14:51;100549.34;;;20.85;80.49
19114;BME280;9689;51.052;13.772;2023-08-17T03:19:52;100552.34;;;20.79;81.22
19114;BME280;9689;51.052;13.772;2023-08-17T03:24:56;100553.84;;;20.53;82.37
19114;BME280;9689;51.052;13.772;2023-08-17T03:29:56;100557.06;;;20.58;83.67
19114;BME280;9689;51.052;13.772;2023-08-17T03:34:57;100549.59;;;20.51;84.00
19114;BME280;9689;51.052;13.772;2023-08-17T03:39:59;100547.44;;;20.26;86.08
19114;BME280;9689;51.052;13.772;2023-08-17T03:45:04;100553.50;;;20.28;87.23
19114;BME280;9689;51.052;13.772;2023-08-17T03:50:08;100544.19;;;20.37;86.22
19114;BME280;9689;51.052;13.772;2023-08-17T03:55:10;100555.72;;;20.36;87.16
19114;BME280;9689;51.052;13.772;2023-08-17T04:00:12;100549.28;;;20.40;86.35
19114;BME280;9689;51.052;13.772;2023-08-17T04:05:13;100544.00;;;20.24;87.14
19114;BME280;9689;51.052;13.772;2023-08-17T04:10:16;100549.75;;;20.16;88.03
19114;BME280;9689;51.052;13.772;2023-08-17T04:15:16;100552.56;;;20.29;87.98
19114;BME280;9689;51.052;13.772;2023-08-17T04:20:17;100561.09;;;20.34;86.91
19114;BME280;9689;51.052;13.772;2023-08-17T04:25:20;100551.78;;;20.27;87.47
19114;BME280;9689;51.052;13.772;2023-08-17T04:30:21;100555.88;;;20.48;86.66
19114;BME280;9689;51.052;13.772;2023-08-17T04:35:28;100559.31;;;20.50;85.76
19114;BME280;9689;51.052;13.772;2023-08-17T04:40:30;100562.53;;;20.55;85.63
19114;BME280;9689;51.052;13.772;2023-08-17T04:45:32;100565.78;;;20.60;85.44
19114;BME280;9689;51.052;13.772;2023-08-17T04:50:33;100577.66;;;20.69;84.78
19114;BME280;9689;51.052;13.772;2023-08-17T04:55:35;100573.94;;;20.87;83.17
19114;BME280;9689;51.052;13.772;2023-08-17T05:00:36;100579.75;;;21.08;82.10
19114;BME280;9689;51.052;13.772;2023-08-17T05:05:37;100598.53;;;21.20;80.96
19114;BME280;9689;51.052;13.772;2023-08-17T05:10:43;100608.91;;;21.08;80.08
19114;BME280;9689;51.052;13.772;2023-08-17T05:15:44;100612.31;;;21.10;80.67
19114;BME280;9689;51.052;13.772;2023-08-17T05:20:46;100609.50;;;21.43;79.12
19114;BME280;9689;51.052;13.772;2023-08-17T05:25:48;100600.97;;;21.53;77.51
19114;BME280;9689;51.052;13.772;2023-08-17T05:30:49;100594.66;;;21.69;76.45
19114;BME280;9689;51.052;13.772;2023-08-17T05:35:53;100581.59;;;21.81;76.29
19114;BME280;9689;51.052;13.772;2023-08-17T05:40:56;100585.06;;;21.95;75.66
19114;BME280;9689;51.052;13.772;2023-08-17T05:45:57;100592.44;;;22.05;74.43
19114;BME280;9689;51.052;13.772;2023-08-17T05:50:59;100606.59;;;22.19;73.52
19114;BME280;9689;51.052;13.772;2023-08-17T05:56:01;100620.31;;;21.97;73.18
19114;BME280;9689;51.052;13.772;2023-08-17T06:01:05;100621.69;;;22.19;73.44
19114;BME280;9689;51.052;13.772;2023-08-17T06:06:07;100611.16;;;22.17;72.95
19114;BME280;9689;51.052;13.772;2023-08-17T06:11:09;100618.91;;;22.20;72.68
19114;BME280;9689;51.052;13.772;2023-08-17T06:16:10;100629.69;;;22.32;72.48
19114;BME280;9689;51.052;13.772;2023-08-17T06:21:11;100639.50;;;22.17;72.87
19114;BME280;9689;51.052;13.772;2023-08-17T06:26:13;100634.09;;;22.18;73.44
19114;BME280;9689;51.052;13.772;2023-08-17T06:31:14;100635.41;;;22.67;72.16
19114;BME280;9689;51.052;13.772;2023-08-17T06:36:15;100631.50;;;22.72;71.49
19114;BME280;9689;51.052;13.772;2023-08-17T06:41:17;100642.75;;;22.90;70.73
19114;BME280;9689;51.052;13.772;2023-08-17T06:46:18;100642.56;;;22.52;72.14
19114;BME280;9689;51.052;13.772;2023-08-17T06:51:19;100644.56;;;22.48;72.17
19114;BME280;9689;51.052;13.772;2023-08-17T06:56:21;100631.28;;;22.48;71.74
19114;BME280;9689;51.052;13.772;2023-08-17T07:01:22;100630.75;;;22.43;72.49
19114;BME280;9689;51.052;13.772;2023-08-17T07:06:23;100626.41;;;22.69;71.31
19114;BME280;9689;51.052;13.772;2023-08-17T07:11:25;100626.53;;;22.95;70.27
19114;BME280;9689;51.052;13.772;2023-08-17T07:16:25;100616.13;;;22.50;71.26
19114;BME280;9689;51.052;13.772;2023-08-17T07:21:26;100628.47;;;22.78;71.00
19114;BME280;9689;51.052;13.772;2023-08-17T07:26:28;100633.44;;;22.97;70.49
19114;BME280;9689;51.052;13.772;2023-08-17T07:31:29;100625.81;;;23.05;70.45
19114;BME280;9689;51.052;13.772;2023-08-17T07:36:31;100634.91;;;22.74;71.39
19114;BME280;9689;51.052;13.772;2023-08-17T07:41:33;100624.63;;;23.09;70.48
19114;BME280;9689;51.052;13.772;2023-08-17T07:46:34;100619.16;;;23.51;69.74
19114;BME280;9689;51.052;13.772;2023-08-17T07:51:34;100617.63;;;23.74;67.70
19114;BME280;9689;51.052;13.772;2023-08-17T07:56:37;100608.44;;;23.78;66.92
19114;BME280;9689;51.052;13.772;2023-08-17T08:01:37;100594.38;;;23.88;66.39
19114;BME280;9689;51.052;13.772;2023-08-17T08:06:39;100598.66;;;23.78;66.92
19114;BME280;9689;51.052;13.772;2023-08-17T08:11:41;100578.28;;;24.03;66.63
19114;BME280;9689;51.052;13.772;2023-08-17T08:16:42;100568.81;;;23.99;65.45
19114;BME280;9689;51.052;13.772;2023-08-17T08:21:43;100576.88;;;24.10;64.87
19114;BME280;9689;51.052;13.772;2023-08-17T08:26:45;100568.28;;;24.30;63.43
19114;BME280;9689;51.052;13.772;2023-08-17T08:31:46;100556.25;;;24.37;63.49
19114;BME280;9689;51.052;13.772;2023-08-17T08:36:46;100554.34;;;24.27;62.62
19114;BME280;9689;51.052;13.772;2023-08-17T08:41:49;100555.69;;;24.69;61.93
19114;BME280;9689;51.052;13.772;2023-08-17T08:46:53;100545.31;;;24.77;61.04
19114;BME280;9689;51.052;13.772;2023-08-17T08:51:57;100545.41;;;25.11;60.08
19114;BME280;9689;51.052;13.772;2023-08-17T08:57:04;100545.25;;;25.47;59.17
19114;BME280;9689;51.052;13.772;2023-08-17T09:02:06;100541.59;;;26.04;58.14
19114;BME280;9689;51.052;13.772;2023-08-17T09:07:13;100535.38;;;26.26;56.28
19114;BME280;9689;51.052;13.772;2023-08-17T09:12:15;100534.94;;;26.85;54.24
19114;BME280;9689;51.052;13.772;2023-08-17T09:17:32;100529.91;;;27.33;53.30
19114;BME280;9689;51.052;13.772;2023-08-17T09:22:39;100536.19;;;27.02;53.93
19114;BME280;9689;51.052;13.772;2023-08-17T09:27:41;100529.47;;;27.28;52.95
19114;BME280;9689;51.052;13.772;2023-08-17T09:32:42;100527.28;;;27.01;54.12
19114;BME280;9689;51.052;13.772;2023-08-17T09:37:43;100531.84;;;27.22;53.48
19114;BME280;9689;51.052;13.772;2023-08-17T09:42:45;100521.47;;;27.28;53.45
19114;BME280;9689;51.052;13.772;2023-08-17T09:47:46;100521.78;;;27.14;53.83
19114;BME280;9689;51.052;13.772;2023-08-17T09:52:47;100513.91;;;26.81;55.23
19114;BME280;9689;51.052;13.772;2023-08-17T09:57:51;100517.31;;;26.83;55.31
19114;BME280;9689;51.052;13.772;2023-08-17T10:02:52;100511.38;;;27.00;55.44
19114;BME280;9689;51.052;13.772;2023-08-17T10:07:56;100507.53;;;26.93;55.93
19114;BME280;9689;51.052;13.772;2023-08-17T10:13:06;100506.56;;;27.15;54.52
19114;BME280;9689;51.052;13.772;2023-08-17T10:18:13;100493.06;;;27.16;54.73
19114;BME280;9689;51.052;13.772;2023-08-17T10:23:18;100495.44;;;27.40;53.45
19114;BME280;9689;51.052;13.772;2023-08-17T10:28:24;100489.63;;;27.66;53.30
19114;BME280;9689;51.052;13.772;2023-08-17T10:33:25;100488.00;;;27.74;52.51
19114;BME280;9689;51.052;13.772;2023-08-17T10:38:27;100479.59;;;28.08;52.13
19114;BME280;9689;51.052;13.772;2023-08-17T10:43:34;100467.75;;;28.20;51.92
19114;BME280;9689;51.052;13.772;2023-08-17T10:48:34;100468.78;;;28.29;52.91
19114;BME280;9689;51.052;13.772;2023-08-17T10:53:37;100461.19;;;28.43;52.87
19114;BME280;9689;51.052;13.772;2023-08-17T10:58:43;100451.28;;;28.54;51.95
19114;BME280;9689;51.052;13.772;2023-08-17T11:03:44;100457.31;;;28.65;52.43
19114;BME280;9689;51.052;13.772;2023-08-17T11:08:53;100451.41;;;28.71;52.85
19114;BME280;9689;51.052;13.772;2023-08-17T11:13:57;100447.72;;;28.72;52.88
19114;BME280;9689;51.052;13.772;2023-08-17T11:19:00;100448.72;;;28.71;52.87
19114;BME280;9689;51.052;13.772;2023-08-17T11:24:01;100433.72;;;28.88;51.84
19114;BME280;9689;51.052;13.772;2023-08-17T11:29:03;100437.94;;;29.00;51.70
19114;BME280;9689;51.052;13.772;2023-08-17T11:34:05;100439.09;;;28.88;52.90
19114;BME280;9689;51.052;13.772;2023-08-17T11:39:06;100429.47;;;29.05;52.85
19114;BME280;9689;51.052;13.772;2023-08-17T11:44:11;100422.25;;;29.06;51.99
19114;BME280;9689;51.052;13.772;2023-08-17T11:49:13;100421.38;;;29.15;51.69
19114;BME280;9689;51.052;13.772;2023-08-17T11:54:13;100418.59;;;29.34;51.25
19114;BME280;9689;51.052;13.772;2023-08-17T11:59:15;100416.94;;;29.61;50.32
19114;BME280;9689;51.052;13.772;2023-08-17T12:04:25;100415.09;;;29.61;50.09
19114;BME280;9689;51.052;13.772;2023-08-17T12:09:26;100403.75;;;29.85;49.18
19114;BME280;9689;51.052;13.772;2023-08-17T12:14:28;100389.44;;;30.12;47.91
19114;BME280;9689;51.052;13.772;2023-08-17T12:19:29;100387.19;;;29.90;48.44
19114;BME280;9689;51.052;13.772;2023-08-17T12:24:30;100382.09;;;29.41;48.39
19114;BME280;9689;51.052;13.772;2023-08-17T12:29:32;100384.44;;;29.26;48.87
19114;BME280;9689;51.052;13.772;2023-08-17T12:34:33;100372.69;;;29.27;48.27
19114;BME280;9689;51.052;13.772;2023-08-17T12:39:34;100366.06;;;29.77;45.89
19114;BME280;9689;51.052;13.772;2023-08-17T12:44:36;100370.50;;;30.39;44.68
19114;BME280;9689;51.052;13.772;2023-08-17T12:49:37;100356.72;;;30.86;42.24
19114;BME280;9689;51.052;13.772;2023-08-17T12:54:38;100334.53;;;31.27;41.16
19114;BME280;9689;51.052;13.772;2023-08-17T12:59:41;100344.88;;;31.56;40.29
19114;BME280;9689;51.052;13.772;2023-08-17T13:04:42;100343.06;;;31.64;40.13
19114;BME280;9689;51.052;13.772;2023-08-17T13:09:42;100337.84;;;31.63;40.51
19114;BME280;9689;51.052;13.772;2023-08-17T13:14:48;100338.50;;;31.14;39.51
19114;BME280;9689;51.052;13.772;2023-08-17T13:19:49;100337.75;;;30.96;40.20
19114;BME280;9689;51.052;13.772;2023-08-17T13:24:50;100336.44;;;30.74;40.89
19114;BME280;9689;51.052;13.772;2023-08-17T13:29:52;100319.56;;;30.90;41.74
19114;BME280;9689;51.052;13.772;2023-08-17T13:34:53;100313.41;;;31.72;41.99
19114;BME280;9689;51.052;13.772;2023-08-17T13:39:54;100307.38;;;32.19;37.81
19114;BME280;9689;51.052;13.772;2023-08-17T13:44:56;100305.44;;;32.69;36.86
19114;BME280;9689;51.052;13.772;2023-08-17T13:49:57;100325.59;;;32.09;38.56
19114;BME280;9689;51.052;13.772;2023-08-17T13:54:58;100325.25;;;32.04;39.84
19114;BME280;9689;51.052;13.772;2023-08-17T14:00:00;100323.34;;;31.64;40.48
19114;BME280;9689;51.052;13.772;2023-08-17T14:05:04;100316.84;;;31.91;39.77
19114;BME280;9689;51.052;13.772;2023-08-17T14:10:05;100308.34;;;31.69;40.75
19114;BME280;9689;51.052;13.772;2023-08-17T14:15:16;100291.53;;;31.09;41.14
19114;BME280;9689;51.052;13.772;2023-08-17T14:20:16;100289.13;;;30.63;42.68
19114;BME280;9689;51.052;13.772;2023-08-17T14:25:17;100285.34;;;30.04;44.11
19114;BME280;9689;51.052;13.772;2023-08-17T14:30:19;100287.47;;;29.75;44.62
19114;BME280;9689;51.052;13.772;2023-08-17T14:35:20;100281.78;;;29.60;45.81
19114;BME280;9689;51.052;13.772;2023-08-17T14:40:21;100279.59;;;29.55;45.70
19114;BME280;9689;51.052;13.772;2023-08-17T14:45:23;100279.44;;;29.57;46.71
19114;BME280;9689;51.052;13.772;2023-08-17T14:50:24;100295.13;;;29.70;46.89
19114;BME280;9689;51.052;13.772;2023-08-17T14:55:28;100291.69;;;29.77;47.15
19114;BME280;9689;51.052;13.772;2023-08-17T15:00:30;100304.66;;;29.82;42.64
19114;BME280;9689;51.052;13.772;2023-08-17T15:05:32;100297.38;;;29.74;42.19
19114;BME280;9689;51.052;13.772;2023-08-17T15:10:35;100305.16;;;30.03;42.22
19114;BME280;9689;51.052;13.772;2023-08-17T15:15:37;100302.06;;;30.08;42.77
19114;BME280;9689;51.052;13.772;2023-08-17T15:20:38;100301.47;;;30.04;41.27
19114;BME280;9689;51.052;13.772;2023-08-17T15:25:39;100296.97;;;30.57;40.27
19114;BME280;9689;51.052;13.772;2023-08-17T15:30:41;100286.78;;;31.37;38.79
19114;BME280;9689;51.052;13.772;2023-08-17T15:35:42;100293.38;;;31.75;39.82
19114;BME280;9689;51.052;13.772;2023-08-17T15:40:43;100296.09;;;31.91;39.57
19114;BME280;9689;51.052;13.772;2023-08-17T15:45:45;100298.94;;;31.15;42.68
19114;BME280;9689;51.052;13.772;2023-08-17T15:50:46;100303.59;;;30.36;44.78
19114;BME280;9689;51.052;13.772;2023-08-17T15:55:47;100306.72;;;30.24;45.53
19114;BME280;9689;51.052;13.772;2023-08-17T16:00:49;100314.19;;;30.12;46.34
19114;BME280;9689;51.052;13.772;2023-08-17T16:05:50;100314.97;;;30.30;45.86
19114;BME280;9689;51.052;13.772;2023-08-17T16:10:50;100314.34;;;30.36;44.89
19114;BME280;9689;51.052;13.772;2023-08-17T16:15:53;100303.66;;;30.19;45.83
19114;BME280;9689;51.052;13.772;2023-08-17T16:20:54;100298.63;;;29.80;46.86
19114;BME280;9689;51.052;13.772;2023-08-17T16:25:54;100300.13;;;29.47;47.20
19114;BME280;9689;51.052;13.772;2023-08-17T16:30:56;100294.56;;;29.31;47.39
19114;BME280;9689;51.052;13.772;2023-08-17T16:36:03;100300.41;;;28.98;47.83
19114;BME280;9689;51.052;13.772;2023-08-17T16:41:04;100307.69;;;28.79;49.18
19114;BME280;9689;51.052;13.772;2023-08-17T16:46:06;100306.88;;;28.68;49.05
19114;BME280;9689;51.052;13.772;2023-08-17T16:51:07;100320.63;;;28.46;50.12
19114;BME280;9689;51.052;13.772;2023-08-17T16:56:07;100322.91;;;28.31;50.77
19114;BME280;9689;51.052;13.772;2023-08-17T17:01:10;100326.88;;;28.17;51.50
19114;BME280;9689;51.052;13.772;2023-08-17T17:06:13;100317.41;;;28.04;51.92
19114;BME280;9689;51.052;13.772;2023-08-17T17:11:14;100318.56;;;27.92;52.36
19114;BME280;9689;51.052;13.772;2023-08-17T17:16:16;100312.22;;;27.73;52.80
19114;BME280;9689;51.052;13.772;2023-08-17T17:21:19;100310.78;;;27.59;53.55
19114;BME280;9689;51.052;13.772;2023-08-17T17:26:21;100308.50;;;27.45;53.42
19114;BME280;9689;51.052;13.772;2023-08-17T17:31:25;100313.28;;;27.42;53.35
19114;BME280;9689;51.052;13.772;2023-08-17T17:36:26;100312.44;;;27.31;54.15
19114;BME280;9689;51.052;13.772;2023-08-17T17:41:29;100314.38;;;27.20;53.74
19114;BME280;9689;51.052;13.772;2023-08-17T17:46:33;100322.94;;;27.04;54.36
19114;BME280;9689;51.052;13.772;2023-08-17T17:51:34;100335.63;;;26.91;54.79
19114;BME280;9689;51.052;13.772;2023-08-17T17:56:38;100345.97;;;26.74;54.82
19114;BME280;9689;51.052;13.772;2023-08-17T18:01:40;100353.53;;;26.60;55.02
19114;BME280;9689;51.052;13.772;2023-08-17T18:06:41;100351.22;;;26.55;55.24
19114;BME280;9689;51.052;13.772;2023-08-17T18:11:42;100359.94;;;26.36;56.04
19114;BME280;9689;51.052;13.772;2023-08-17T18:16:44;100347.69;;;26.34;56.77
19114;BME280;9689;51.052;13.772;2023-08-17T18:21:45;100346.50;;;26.06;57.63
19114;BME280;9689;51.052;13.772;2023-08-17T18:26:46;100350.22;;;25.93;58.58
19114;BME280;9689;51.052;13.772;2023-08-17T18:31:48;100354.34;;;25.86;59.41
19114;BME280;9689;51.052;13.772;2023-08-17T18:36:49;100362.78;;;25.71;60.39
19114;BME280;9689;51.052;13.772;2023-08-17T18:41:50;100362.34;;;25.54;60.87
19114;BME280;9689;51.052;13.772;2023-08-17T18:46:53;100372.88;;;25.56;61.02
19114;BME280;9689;51.052;13.772;2023-08-17T18:51:53;100378.59;;;25.40;61.51
19114;BME280;9689;51.052;13.772;2023-08-17T18:56:54;100385.16;;;25.25;61.49
19114;BME280;9689;51.052;13.772;2023-08-17T19:01:57;100386.63;;;25.18;61.68
19114;BME280;9689;51.052;13.772;2023-08-17T19:06:57;100393.41;;;25.11;61.78
19114;BME280;9689;51.052;13.772;2023-08-17T19:11:58;100394.38;;;25.09;61.94
19114;BME280;9689;51.052;13.772;2023-08-17T19:17:00;100401.25;;;25.01;62.22
19114;BME280;9689;51.052;13.772;2023-08-17T19:22:01;100407.09;;;24.95;62.17
19114;BME280;9689;51.052;13.772;2023-08-17T19:27:02;100415.44;;;24.90;62.31
19114;BME280;9689;51.052;13.772;2023-08-17T19:32:05;100425.72;;;24.84;62.40
19114;BME280;9689;51.052;13.772;2023-08-17T19:37:06;100427.06;;;24.78;62.71
19114;BME280;9689;51.052;13.772;2023-08-17T19:42:06;100419.19;;;24.76;62.77
19114;BME280;9689;51.052;13.772;2023-08-17T19:47:09;100417.69;;;24.61;63.24
19114;BME280;9689;51.052;13.772;2023-08-17T19:52:11;100425.69;;;24.61;61.98
19114;BME280;9689;51.052;13.772;2023-08-17T19:57:12;100424.00;;;24.60;60.90
19114;BME280;9689;51.052;13.772;2023-08-17T20:02:14;100426.66;;;24.60;60.54
19114;BME280;9689;51.052;13.772;2023-08-17T20:07:15;100421.28;;;24.49;60.25
19114;BME280;9689;51.052;13.772;2023-08-17T20:12:16;100419.31;;;24.40;60.05
19114;BME280;9689;51.052;13.772;2023-08-17T20:17:18;100429.88;;;24.41;59.59
19114;BME280;9689;51.052;13.772;2023-08-17T20:22:19;100427.13;;;24.30;59.83
19114;BME280;9689;51.052;13.772;2023-08-17T20:27:20;100424.91;;;24.48;58.90
19114;BME280;9689;51.052;13.772;2023-08-17T20:32:22;100429.59;;;24.33;58.50
19114;BME280;9689;51.052;13.772;2023-08-17T20:37:23;100434.50;;;24.27;58.79
19114;BME280;9689;51.052;13.772;2023-08-17T20:42:25;100426.81;;;24.11;59.37
19114;BME280;9689;51.052;13.772;2023-08-17T20:47:27;100429.88;;;23.93;58.89
19114;BME280;9689;51.052;13.772;2023-08-17T20:52:28;100431.44;;;23.96;59.57
19114;BME280;9689;51.052;13.772;2023-08-17T20:57:29;100434.63;;;24.01;59.33
19114;BME280;9689;51.052;13.772;2023-08-17T21:02:31;100456.66;;;24.03;59.45
19114;BME280;9689;51.052;13.772;2023-08-17T21:07:32;100456.00;;;23.76;60.11
19114;BME280;9689;51.052;13.772;2023-08-17T21:12:34;100456.34;;;23.71;60.40
19114;BME280;9689;51.052;13.772;2023-08-17T21:17:36;100452.84;;;23.58;60.53
19114;BME280;9689;51.052;13.772;2023-08-17T21:22:37;100456.16;;;23.36;61.11
19114;BME280;9689;51.052;13.772;2023-08-17T21:27:38;100445.97;;;23.30;60.96
19114;BME280;9689;51.052;13.772;2023-08-17T21:32:40;100449.69;;;23.40;61.99
19114;BME280;9689;51.052;13.772;2023-08-17T21:37:44;100443.34;;;23.54;61.98
19114;BME280;9689;51.052;13.772;2023-08-17T21:42:44;100455.00;;;23.27;62.13
19114;BME280;9689;51.052;13.772;2023-08-17T21:47:47;100445.56;;;23.10;62.75
19114;BME280;9689;51.052;13.772;2023-08-17T21:52:50;100467.78;;;23.09;62.67
19114;BME280;9689;51.052;13.772;2023-08-17T21:57:51;100470.97;;;22.89;63.70
19114;BME280;9689;51.052;13.772;2023-08-17T22:02:53;100474.97;;;22.82;64.52
19114;BME280;9689;51.052;13.772;2023-08-17T22:07:54;100474.53;;;22.75;64.49
19114;BME280;9689;51.052;13.772;2023-08-17T22:12:55;100469.88;;;22.79;63.53
19114;BME280;9689;51.052;13.772;2023-08-17T22:17:57;100471.53;;;22.94;63.56
19114;BME280;9689;51.052;13.772;2023-08-17T22:22:58;100479.69;;;22.91;64.00
19114;BME280;9689;51.052;13.772;2023-08-17T22:27:58;100479.66;;;22.78;65.03
19114;BME280;9689;51.052;13.772;2023-08-17T22:33:01;100474.28;;;22.66;65.34
19114;BME280;9689;51.052;13.772;2023-08-17T22:38:01;100478.97;;;22.62;65.96
19114;BME280;9689;51.052;13.772;2023-08-17T22:43:02;100481.28;;;22.54;66.38
19114;BME280;9689;51.052;13.772;2023-08-17T22:48:05;100473.38;;;22.40;67.88
19114;BME280;9689;51.052;13.772;2023-08-17T22:53:06;100473.81;;;22.34;67.97
19114;BME280;9689;51.052;13.772;2023-08-17T22:58:07;100480.47;;;22.26;68.37
19114;BME280;9689;51.052;13.772;2023-08-17T23:03:09;100478.41;;;22.44;68.61
19114;BME280;9689;51.052;13.772;2023-08-17T23:08:10;100473.84;;;22.46;68.72
19114;BME280;9689;51.052;13.772;2023-08-17T23:13:10;100478.22;;;22.20;69.61
19114;BME280;9689;51.052;13.772;2023-08-17T23:18:13;100474.56;;;22.09;69.48
19114;BME280;9689;51.052;13.772;2023-08-17T23:23:13;100474.88;;;21.90;70.19
19114;BME280;9689;51.052;13.772;2023-08-17T23:28:14;100483.06;;;22.14;69.55
19114;BME280;9689;51.052;13.772;2023-08-17T23:33:16;100489.91;;;22.04;69.99
19114;BME280;9689;51.052;13.772;2023-08-17T23:38:17;100495.81;;;21.80;70.93
19114;BME280;9689;51.052;13.772;2023-08-17T23:43:18;100493.69;;;21.72;71.17
19114;BME280;9689;51.052;13.772;2023-08-17T23:48:20;100494.06;;;21.66;71.55
19114;BME280;9689;51.052;13.772;2023-08-17T23:53:21;100490.81;;;21.76;71.61
19114;BME280;9689;51.052;13.772;2023-08-17T23:58:21;100491.97;;;21.57;72.32
